Time;durP1;ratioP1;P1;durP2;ratioP2;P2;SDS_P1;SDS_P2;PMS_P1;PMS_P2;Temp;Humidity;BMP_temperature;BMP_pressure;BME280_temperature;BME280_humidity;BME280_pressure;Samples;Min_cycle;Max_cycle;Signal;HPM_P1;HPM_P2
2022/01/26 00:07:35;;;;;;;128.68;40.90;;;;;;;;;;5145792;27;20507;-62
2022/01/26 00:10:01;;;;;;;134.35;41.17;;;;;;;;;;5154244;27;20494;-62
2022/01/26 00:12:27;;;;;;;127.72;40.75;;;;;;;;;;5167041;27;20078;-61
2022/01/26 00:14:53;;;;;;;129.57;38.88;;;;;;;;;;5167814;27;20095;-63
2022/01/26 00:17:19;;;;;;;136.40;44.13;;;;;;;;;;5167434;27;20106;-61
2022/01/26 00:20:02;;;;;;;138.95;42.78;;;;;;;;;;5161967;27;20039;-64
2022/01/26 00:25:35;;;;;;;136.57;42.95;;;;;;;;;;5145910;27;20050;-62
2022/01/26 00:41:04;;;;;;;126.75;41.75;;;;;;;;;;5161478;27;20053;-62
2022/01/26 00:43:31;;;;;;;123.00;38.90;;;;;;;;;;5167004;27;20047;-62
2022/01/26 00:45:59;;;;;;;125.65;41.03;;;;;;;;;;5167391;27;20070;-63
2022/01/26 00:48:26;;;;;;;139.85;42.47;;;;;;;;;;5166831;27;20038;-63
2022/01/26 00:50:53;;;;;;;119.93;41.30;;;;;;;;;;5151476;27;20039;-63
2022/01/26 00:53:29;;;;;;;129.27;41.05;;;;;;;;;;5155552;27;20068;-63
2022/01/26 00:55:55;;;;;;;130.82;39.47;;;;;;;;;;5166873;27;20046;-61
2022/01/26 00:58:22;;;;;;;127.75;40.90;;;;;;;;;;5166888;27;20058;-63
2022/01/26 01:00:49;;;;;;;123.28;40.50;;;;;;;;;;5166551;27;20142;-63
2022/01/26 01:03:16;;;;;;;129.93;42.35;;;;;;;;;;5157730;27;20071;-63
2022/01/26 01:05:52;;;;;;;123.63;41.00;;;;;;;;;;5145388;27;20065;-61
2022/01/26 01:08:21;;;;;;;123.97;39.50;;;;;;;;;;5145817;27;20039;-61
2022/01/26 01:10:49;;;;;;;123.43;40.65;;;;;;;;;;5145640;27;20059;-62
2022/01/26 01:13:19;;;;;;;135.02;44.13;;;;;;;;;;5152544;27;20050;-62
2022/01/26 01:15:45;;;;;;;126.18;41.78;;;;;;;;;;5166578;27;20085;-61
2022/01/26 01:18:20;;;;;;;123.80;38.75;;;;;;;;;;5166396;27;20170;-62
2022/01/26 01:31:43;;;;;;;109.03;37.17;;;;;;;;;;5145389;27;20051;-61
2022/01/26 01:34:09;;;;;;;125.10;39.55;;;;;;;;;;5160986;27;20050;-62
2022/01/26 01:36:38;;;;;;;129.57;40.55;;;;;;;;;;5166132;27;20074;-62
2022/01/26 01:39:07;;;;;;;126.20;41.65;;;;;;;;;;5166439;27;20035;-61
2022/01/26 01:41:33;;;;;;;130.38;41.30;;;;;;;;;;5165994;27;20050;-62
2022/01/26 01:44:00;;;;;;;123.35;39.70;;;;;;;;;;5151452;27;20110;-61
2022/01/26 01:46:28;;;;;;;122.53;39.47;;;;;;;;;;5145287;28;20054;-62
2022/01/26 01:48:54;;;;;;;;;;;;;;;;;;5145541;28;20039;-62
2022/01/26 01:51:26;;;;;;;116.20;38.80;;;;;;;;;;5145111;27;19919;-62
2022/01/26 01:53:52;;;;;;;117.93;39.05;;;;;;;;;;5158338;27;20049;-62
2022/01/26 01:56:23;;;;;;;120.22;39.47;;;;;;;;;;5165841;27;20038;-62
2022/01/26 01:58:49;;;;;;;96.10;34.83;;;;;;;;;;5166153;27;20068;-62
2022/01/26 02:01:15;;;;;;;111.45;36.17;;;;;;;;;;5165422;27;20046;-61
2022/01/26 02:03:41;;;;;;;102.57;37.28;;;;;;;;;;5149102;27;20099;-63
2022/01/26 02:06:08;;;;;;;107.63;38.45;;;;;;;;;;5128896;27;20457;-63
2022/01/26 02:08:34;;;;;;;105.30;35.38;;;;;;;;;;5128357;28;20043;-63
2022/01/26 02:11:01;;;;;;;122.00;41.88;;;;;;;;;;5138753;27;20444;-63
2022/01/26 02:13:32;;;;;;;113.40;38.22;;;;;;;;;;5149347;27;20074;-63
2022/01/26 02:18:58;;;;;;;117.70;38.38;;;;;;;;;;5128569;28;20059;-62
2022/01/26 02:21:32;;;;;;;117.25;38.42;;;;;;;;;;5149612;27;20072;-63
2022/01/26 02:59:53;;;;;;;114.20;40.03;;;;;;;;;;5147480;27;20070;-62
2022/01/26 03:04:51;;;;;;;105.00;38.10;;;;;;;;;;5155752;27;20050;-62
2022/01/26 03:07:25;;;;;;;112.15;39.15;;;;;;;;;;5168535;27;20039;-62
2022/01/26 03:10:02;;;;;;;119.63;40.78;;;;;;;;;;5168939;27;20045;-62
2022/01/26 03:12:49;;;;;;;130.85;42.00;;;;;;;;;;5168981;27;20568;-62
2022/01/26 03:15:28;;;;;;;128.13;42.90;;;;;;;;;;5156515;27;20039;-62
2022/01/26 03:18:16;;;;;;;101.38;36.75;;;;;;;;;;5148273;27;20047;-62
2022/01/26 03:20:44;;;;;;;122.88;38.90;;;;;;;;;;5147315;27;20075;-62
2022/01/26 03:29:08;;;;;;;118.55;42.88;;;;;;;;;;5148039;27;20049;-62
2022/01/26 03:34:18;;;;;;;117.85;40.35;;;;;;;;;;5151067;27;20038;-62
2022/01/26 03:39:14;;;;;;;126.93;40.63;;;;;;;;;;5168211;27;20047;-62
2022/01/26 03:44:09;;;;;;;118.32;40.80;;;;;;;;;;5165824;27;20054;-62
2022/01/26 03:46:35;;;;;;;118.50;40.35;;;;;;;;;;5147623;27;20050;-61
2022/01/26 03:49:02;;;;;;;120.88;40.70;;;;;;;;;;5147179;27;20127;-61
2022/01/26 03:51:28;;;;;;;125.63;41.72;;;;;;;;;;5146406;27;20051;-62
2022/01/26 03:53:54;;;;;;;114.72;37.70;;;;;;;;;;5160665;27;20047;-61
2022/01/26 03:56:20;;;;;;;117.63;39.17;;;;;;;;;;5167943;27;20116;-62
2022/01/26 03:58:46;;;;;;;104.05;38.78;;;;;;;;;;5168201;27;20077;-62
2022/01/26 04:01:13;;;;;;;111.10;39.60;;;;;;;;;;5168099;27;20054;-62
2022/01/26 04:03:39;;;;;;;103.55;37.50;;;;;;;;;;5165661;27;20566;-62
2022/01/26 04:06:05;;;;;;;106.53;37.80;;;;;;;;;;5167475;27;20046;-62
2022/01/26 04:08:33;;;;;;;108.65;37.55;;;;;;;;;;5167658;27;20043;-62
2022/01/26 04:11:26;;;;;;;105.82;39.40;;;;;;;;;;5167468;27;20046;-62
2022/01/26 04:13:52;;;;;;;112.43;38.95;;;;;;;;;;5152501;27;20047;-62
2022/01/26 04:16:19;;;;;;;103.57;36.75;;;;;;;;;;5149846;27;20049;-61
2022/01/26 04:18:45;;;;;;;101.57;38.15;;;;;;;;;;5167657;27;20074;-62
2022/01/26 04:23:47;;;;;;;115.68;39.47;;;;;;;;;;5167395;27;20050;-62
2022/01/26 04:26:16;;;;;;;98.45;35.78;;;;;;;;;;5166028;27;20042;-62
2022/01/26 04:28:49;;;;;;;99.55;36.00;;;;;;;;;;5145712;27;20051;-62
2022/01/26 04:31:17;;;;;;;91.28;35.25;;;;;;;;;;5147074;27;20082;-62
2022/01/26 04:33:43;;;;;;;102.50;35.20;;;;;;;;;;5146894;27;20054;-62
2022/01/26 04:36:13;;;;;;;93.72;32.72;;;;;;;;;;5145940;27;20490;-62
2022/01/26 04:38:45;;;;;;;95.82;37.30;;;;;;;;;;5167104;27;20038;-62
2022/01/26 04:43:58;;;;;;;92.15;34.28;;;;;;;;;;5147913;27;20047;-62
2022/01/26 04:46:27;;;;;;;96.80;34.65;;;;;;;;;;5148271;27;20054;-62
2022/01/26 04:48:53;;;;;;;90.38;33.45;;;;;;;;;;5167441;27;20053;-62
2022/01/26 04:51:19;;;;;;;86.82;33.72;;;;;;;;;;5166371;27;20038;-62
2022/01/26 04:53:45;;;;;;;101.43;35.92;;;;;;;;;;5166628;27;20121;-62
2022/01/26 04:56:13;;;;;;;90.53;34.72;;;;;;;;;;5166187;27;20122;-62
2022/01/26 04:58:39;;;;;;;;;;;;;;;;;;5146737;27;20057;-61
2022/01/26 05:01:05;;;;;;;91.10;34.30;;;;;;;;;;5145465;27;19920;-62
2022/01/26 05:03:32;;;;;;;90.43;33.70;;;;;;;;;;5146339;27;20058;-62
2022/01/26 05:05:58;;;;;;;90.43;33.13;;;;;;;;;;5145522;27;20047;-61
2022/01/26 05:08:24;;;;;;;96.03;33.90;;;;;;;;;;5164510;27;20068;-62
2022/01/26 05:10:50;;;;;;;96.85;35.50;;;;;;;;;;5166245;27;20113;-62
2022/01/26 05:13:16;;;;;;;96.38;34.42;;;;;;;;;;5166679;27;20113;-62
2022/01/26 05:15:43;;;;;;;88.53;32.47;;;;;;;;;;5166432;27;20047;-61
2022/01/26 05:18:10;;;;;;;88.22;32.80;;;;;;;;;;5150027;27;20047;-61
2022/01/26 05:20:36;;;;;;;84.35;33.03;;;;;;;;;;5149515;27;20042;-61
2022/01/26 05:23:02;;;;;;;84.07;31.00;;;;;;;;;;5150325;27;20043;-62
2022/01/26 05:25:28;;;;;;;91.82;32.88;;;;;;;;;;5159707;27;20102;-61
2022/01/26 05:27:55;;;;;;;75.68;29.50;;;;;;;;;;5165872;27;20047;-63
2022/01/26 05:30:21;;;;;;;84.55;34.47;;;;;;;;;;5158713;27;20043;-61
2022/01/26 05:32:47;;;;;;;85.80;34.45;;;;;;;;;;5145761;27;20063;-62
2022/01/26 05:35:13;;;;;;;81.05;29.45;;;;;;;;;;5144976;27;20508;-61
2022/01/26 05:37:39;;;;;;;84.38;31.15;;;;;;;;;;5149099;27;20084;-61
2022/01/26 05:40:06;;;;;;;79.38;30.00;;;;;;;;;;5146994;27;20050;-61
2022/01/26 05:42:35;;;;;;;87.50;31.10;;;;;;;;;;5162052;27;20056;-63
2022/01/26 05:45:04;;;;;;;82.55;33.13;;;;;;;;;;5166303;27;20042;-61
2022/01/26 05:47:32;;;;;;;85.25;30.85;;;;;;;;;;5166012;27;20121;-61
2022/01/26 05:49:59;;;;;;;79.28;31.58;;;;;;;;;;5165957;27;20047;-61
2022/01/26 05:52:25;;;;;;;81.18;32.15;;;;;;;;;;5150234;27;20031;-61
2022/01/26 05:54:51;;;;;;;86.78;30.67;;;;;;;;;;5145183;28;20071;-61
2022/01/26 05:57:17;;;;;;;84.28;33.08;;;;;;;;;;5145259;28;20990;-62
2022/01/26 05:59:43;;;;;;;88.15;32.97;;;;;;;;;;5145658;28;20148;-61
2022/01/26 06:02:10;;;;;;;75.28;29.73;;;;;;;;;;5156602;27;20110;-61
2022/01/26 06:04:36;;;;;;;83.03;30.48;;;;;;;;;;5145968;27;20440;-61
2022/01/26 06:07:02;;;;;;;83.35;30.75;;;;;;;;;;5144621;28;20108;-61
2022/01/26 06:09:28;;;;;;;85.70;32.28;;;;;;;;;;5144827;28;20039;-62
2022/01/26 06:11:54;;;;;;;82.65;30.90;;;;;;;;;;5144813;28;20040;-62
2022/01/26 06:14:20;;;;;;;87.65;33.15;;;;;;;;;;5161349;27;20129;-61
2022/01/26 06:16:47;;;;;;;81.03;30.10;;;;;;;;;;5165479;27;20039;-62
2022/01/26 06:19:13;;;;;;;84.07;31.50;;;;;;;;;;5165631;27;20439;-61
2022/01/26 06:21:39;;;;;;;84.93;32.35;;;;;;;;;;5162467;27;20046;-61
2022/01/26 06:24:06;;;;;;;77.95;30.42;;;;;;;;;;5157527;27;20513;-62
2022/01/26 06:26:32;;;;;;;81.93;30.70;;;;;;;;;;5165567;27;20035;-62
2022/01/26 06:28:58;;;;;;;81.38;31.30;;;;;;;;;;5165998;27;20046;-62
2022/01/26 06:31:27;;;;;;;85.25;33.00;;;;;;;;;;5165515;27;20039;-62
2022/01/26 06:33:53;;;;;;;87.72;33.00;;;;;;;;;;5154197;27;20047;-63
2022/01/26 06:36:19;;;;;;;89.00;34.33;;;;;;;;;;5144185;28;20559;-62
2022/01/26 06:38:46;;;;;;;89.40;33.40;;;;;;;;;;5144515;28;20070;-61
2022/01/26 06:41:13;;;;;;;86.80;33.15;;;;;;;;;;5145159;28;20046;-62
2022/01/26 06:43:50;;;;;;;79.63;31.23;;;;;;;;;;5153757;27;20030;-62
2022/01/26 06:46:35;;;;;;;83.10;30.60;;;;;;;;;;5165571;27;20050;-62
2022/01/26 06:51:46;;;;;;;77.13;31.10;;;;;;;;;;5146207;27;20131;-62
2022/01/26 06:54:13;;;;;;;83.32;33.08;;;;;;;;;;5160988;27;20042;-62
2022/01/26 06:56:39;;;;;;;87.22;35.22;;;;;;;;;;5161705;27;20039;-62
2022/01/26 06:59:05;;;;;;;90.60;32.95;;;;;;;;;;5148330;27;20031;-62
2022/01/26 07:01:31;;;;;;;87.95;32.88;;;;;;;;;;5147663;27;20053;-61
2022/01/26 07:03:57;;;;;;;86.80;33.13;;;;;;;;;;5148884;27;20051;-61
2022/01/26 07:06:23;;;;;;;77.07;31.50;;;;;;;;;;5147281;27;20106;-61
2022/01/26 07:08:50;;;;;;;89.38;32.38;;;;;;;;;;5147346;27;20561;-64
2022/01/26 07:11:16;;;;;;;84.13;35.20;;;;;;;;;;5148433;27;20439;-64
2022/01/26 07:13:42;;;;;;;87.55;33.75;;;;;;;;;;5158336;27;20068;-62
2022/01/26 07:21:38;;;;;;;74.18;32.03;;;;;;;;;;5147689;27;20080;-62
2022/01/26 07:24:05;;;;;;;97.75;35.00;;;;;;;;;;5147643;27;20047;-62
2022/01/26 07:26:31;;;;;;;83.40;32.90;;;;;;;;;;5147364;27;20550;-61
2022/01/26 07:28:58;;;;;;;94.35;35.80;;;;;;;;;;5147840;27;20050;-62
2022/01/26 07:31:24;;;;;;;92.80;35.35;;;;;;;;;;5147627;27;20488;-63
2022/01/26 07:33:54;;;;;;;88.07;35.50;;;;;;;;;;5158913;27;20045;-61
2022/01/26 07:36:21;;;;;;;98.38;34.53;;;;;;;;;;5168142;27;20056;-61
2022/01/26 07:38:53;;;;;;;88.90;35.10;;;;;;;;;;5166593;27;20057;-63
2022/01/26 07:41:19;;;;;;;91.35;36.00;;;;;;;;;;5168517;27;20042;-63
2022/01/26 07:43:45;;;;;;;98.97;35.78;;;;;;;;;;5168552;27;20138;-63
2022/01/26 07:46:12;;;;;;;99.32;39.30;;;;;;;;;;5168407;27;20042;-62
2022/01/26 07:48:38;;;;;;;101.78;37.55;;;;;;;;;;5151380;27;20043;-63
2022/01/26 07:51:04;;;;;;;101.72;37.80;;;;;;;;;;5147147;27;20051;-62
2022/01/26 07:53:32;;;;;;;99.55;38.25;;;;;;;;;;5147482;27;20074;-63
2022/01/26 07:55:58;;;;;;;88.47;35.80;;;;;;;;;;5147183;27;20074;-62
2022/01/26 07:58:25;;;;;;;96.95;38.40;;;;;;;;;;5148159;27;20524;-62
2022/01/26 08:00:51;;;;;;;99.97;37.42;;;;;;;;;;5146922;27;20086;-62
2022/01/26 08:03:18;;;;;;;96.68;36.45;;;;;;;;;;5146826;27;20061;-62
2022/01/26 08:05:44;;;;;;;100.60;38.25;;;;;;;;;;5161651;27;20054;-62
2022/01/26 08:08:10;;;;;;;101.82;39.13;;;;;;;;;;5156588;27;20043;-62
2022/01/26 08:10:37;;;;;;;95.35;38.50;;;;;;;;;;5146702;27;20055;-62
2022/01/26 08:13:03;;;;;;;100.38;39.33;;;;;;;;;;5147025;27;20039;-62
2022/01/26 08:15:30;;;;;;;106.00;40.50;;;;;;;;;;5154143;27;20035;-63
2022/01/26 08:17:59;;;;;;;99.72;40.20;;;;;;;;;;5147211;27;20063;-63
2022/01/26 08:20:25;;;;;;;101.53;39.85;;;;;;;;;;5146268;27;20398;-62
2022/01/26 08:22:52;;;;;;;108.30;42.03;;;;;;;;;;5146908;27;20051;-62
2022/01/26 08:25:21;;;;;;;100.07;40.20;;;;;;;;;;5156072;27;20111;-62
2022/01/26 08:27:53;;;;;;;103.43;40.97;;;;;;;;;;5167569;27;20068;-62
2022/01/26 08:30:20;;;;;;;94.65;38.40;;;;;;;;;;5167083;27;20047;-62
2022/01/26 08:32:46;;;;;;;108.15;42.13;;;;;;;;;;5167568;27;20043;-62
2022/01/26 08:35:13;;;;;;;104.28;39.92;;;;;;;;;;5157241;27;20422;-62
2022/01/26 08:37:39;;;;;;;107.60;41.60;;;;;;;;;;5146410;27;20035;-62
2022/01/26 08:40:06;;;;;;;100.85;38.58;;;;;;;;;;5146189;27;20075;-62
2022/01/26 08:42:32;;;;;;;107.75;44.60;;;;;;;;;;5146359;27;20039;-63
2022/01/26 08:44:58;;;;;;;114.07;43.22;;;;;;;;;;5152170;27;20074;-62
2022/01/26 08:47:25;;;;;;;122.15;43.50;;;;;;;;;;5167397;27;20042;-62
2022/01/26 08:49:51;;;;;;;111.53;41.42;;;;;;;;;;5166847;27;20042;-62
2022/01/26 08:52:17;;;;;;;115.18;43.97;;;;;;;;;;5162687;27;20385;-62
2022/01/26 08:54:43;;;;;;;116.40;44.95;;;;;;;;;;5149317;27;20037;-62
2022/01/26 08:57:09;;;;;;;116.65;45.58;;;;;;;;;;5153648;27;20038;-62
2022/01/26 08:59:35;;;;;;;117.00;44.90;;;;;;;;;;5146273;27;20069;-63
2022/01/26 09:02:01;;;;;;;108.75;45.03;;;;;;;;;;5131243;27;20052;-62
2022/01/26 09:04:28;;;;;;;118.53;46.78;;;;;;;;;;5126871;27;20069;-62
2022/01/26 09:07:00;;;;;;;100.00;42.78;;;;;;;;;;5144741;27;20241;-62
2022/01/26 09:09:30;;;;;;;110.43;44.22;;;;;;;;;;5145010;27;20035;-62
2022/01/26 09:11:58;;;;;;;108.03;39.47;;;;;;;;;;5145783;27;20118;-62
2022/01/26 09:14:27;;;;;;;106.38;42.92;;;;;;;;;;5145851;27;20043;-63
2022/01/26 09:16:54;;;;;;;112.30;43.88;;;;;;;;;;5162022;27;20044;-62
2022/01/26 09:19:32;;;;;;;108.50;41.85;;;;;;;;;;5155768;27;20042;-62
2022/01/26 09:22:12;;;;;;;109.32;44.63;;;;;;;;;;5146708;27;20073;-63
2022/01/26 09:24:40;;;;;;;107.75;43.00;;;;;;;;;;5166200;27;20106;-63
2022/01/26 09:27:06;;;;;;;102.75;42.47;;;;;;;;;;5166039;27;20122;-62
2022/01/26 09:29:33;;;;;;;106.07;42.72;;;;;;;;;;5166393;27;20130;-63
2022/01/26 09:31:59;;;;;;;107.53;44.28;;;;;;;;;;5164723;27;20118;-62
2022/01/26 09:34:28;;;;;;;114.13;45.78;;;;;;;;;;5146062;27;20116;-63
2022/01/26 09:36:54;;;;;;;99.47;42.65;;;;;;;;;;5144566;27;20047;-62
2022/01/26 09:39:24;;;;;;;108.90;44.72;;;;;;;;;;5147165;27;20047;-62
2022/01/26 09:41:51;;;;;;;112.63;45.70;;;;;;;;;;5153801;27;20035;-62
2022/01/26 09:44:17;;;;;;;98.63;43.20;;;;;;;;;;5145295;27;20066;-62
2022/01/26 09:46:44;;;;;;;102.15;41.97;;;;;;;;;;5144998;27;20319;-62
2022/01/26 09:49:11;;;;;;;104.35;41.20;;;;;;;;;;5145529;28;20078;-65
2022/01/26 09:51:41;;;;;;;92.82;39.63;;;;;;;;;;5163399;27;20130;-64
2022/01/26 09:54:11;;;;;;;90.45;38.58;;;;;;;;;;5166016;27;20098;-64
2022/01/26 09:56:37;;;;;;;87.35;38.55;;;;;;;;;;5151114;27;20071;-62
2022/01/26 09:59:04;;;;;;;91.72;40.22;;;;;;;;;;5144871;27;20039;-64
2022/01/26 10:01:40;;;;;;;82.05;39.08;;;;;;;;;;5144999;27;20043;-65
2022/01/26 10:04:06;;;;;;;97.75;41.78;;;;;;;;;;5139638;27;20055;-62
2022/01/26 10:06:33;;;;;;;94.28;41.30;;;;;;;;;;5136992;28;20063;-62
2022/01/26 10:09:27;;;;;;;85.47;36.67;;;;;;;;;;5144344;28;20055;-63
2022/01/26 10:17:27;;;;;;;84.78;37.45;;;;;;;;;;5144489;28;20065;-62
2022/01/26 10:19:57;;;;;;;98.18;37.75;;;;;;;;;;5151543;27;20043;-64
2022/01/26 10:22:31;;;;;;;78.90;37.92;;;;;;;;;;5144312;27;20054;-62
2022/01/26 10:25:03;;;;;;;77.68;34.92;;;;;;;;;;5145613;27;20058;-62
2022/01/26 10:27:36;;;;;;;82.68;35.42;;;;;;;;;;5148867;27;20127;-64
2022/01/26 10:30:05;;;;;;;78.38;34.40;;;;;;;;;;5155293;27;20099;-61
2022/01/26 10:32:34;;;;;;;85.03;36.72;;;;;;;;;;5148864;27;20043;-61
2022/01/26 10:35:01;;;;;;;74.07;31.05;;;;;;;;;;5148276;27;20146;-62
2022/01/26 10:37:27;;;;;;;70.60;31.40;;;;;;;;;;5147978;27;20031;-64
2022/01/26 10:39:56;;;;;;;79.53;32.15;;;;;;;;;;5156739;27;20108;-62
2022/01/26 10:42:25;;;;;;;73.72;32.38;;;;;;;;;;5156316;27;20062;-63
2022/01/26 10:45:04;;;;;;;81.00;34.00;;;;;;;;;;5147736;27;20126;-62
2022/01/26 10:47:35;;;;;;;60.60;29.48;;;;;;;;;;5149081;27;20039;-62
2022/01/26 10:50:30;;;;;;;67.50;32.95;;;;;;;;;;5148721;27;20078;-63
2022/01/26 10:53:04;;;;;;;84.38;33.67;;;;;;;;;;5148467;27;20051;-64
2022/01/26 10:55:31;;;;;;;70.13;31.75;;;;;;;;;;5147763;27;20072;-64
2022/01/26 10:57:57;;;;;;;74.75;30.17;;;;;;;;;;5147641;27;20047;-64
2022/01/26 11:00:23;;;;;;;72.68;32.28;;;;;;;;;;5143819;27;20040;-62
2022/01/26 11:02:50;;;;;;;75.53;33.00;;;;;;;;;;5139778;27;20052;-62
2022/01/26 11:05:16;;;;;;;64.43;29.48;;;;;;;;;;5146984;27;20050;-62
2022/01/26 11:07:45;;;;;;;73.55;29.20;;;;;;;;;;5147656;27;20122;-62
2022/01/26 11:10:12;;;;;;;73.68;31.88;;;;;;;;;;5146532;27;20043;-62
2022/01/26 11:12:39;;;;;;;66.38;30.30;;;;;;;;;;5147525;27;20104;-64
2022/01/26 11:15:10;;;;;;;76.57;33.78;;;;;;;;;;5147614;27;20117;-64
2022/01/26 11:17:37;;;;;;;82.90;32.95;;;;;;;;;;5147636;27;20582;-62
2022/01/26 11:20:31;;;;;;;81.28;34.00;;;;;;;;;;5147401;27;20051;-65
2022/01/26 11:22:59;;;;;;;89.72;33.85;;;;;;;;;;5144527;27;20062;-62
2022/01/26 11:25:27;;;;;;;83.57;31.35;;;;;;;;;;5147031;27;20095;-64
2022/01/26 11:27:53;;;;;;;73.80;30.45;;;;;;;;;;5147409;27;20111;-62
2022/01/26 11:30:21;;;;;;;84.80;33.45;;;;;;;;;;5148091;27;20043;-63
2022/01/26 11:32:59;;;;;;;94.38;34.65;;;;;;;;;;5146849;27;20062;-63
2022/01/26 11:35:27;;;;;;;84.32;30.15;;;;;;;;;;5145280;27;20435;-63
2022/01/26 11:47:20;;;;;;;85.00;34.10;;;;;;;;;;5145736;27;20077;-63
2022/01/26 11:49:47;;;;;;;83.80;34.40;;;;;;;;;;5134503;27;20130;-63
2022/01/26 11:52:23;;;;;;;60.33;28.60;;;;;;;;;;5145649;27;20510;-63
2022/01/26 11:54:56;;;;;;;68.88;29.17;;;;;;;;;;5143748;27;20103;-62
2022/01/26 11:57:38;;;;;;;80.30;31.48;;;;;;;;;;5147208;27;20047;-63
2022/01/26 12:00:08;;;;;;;73.22;30.42;;;;;;;;;;5147113;27;20559;-62
2022/01/26 12:02:52;;;;;;;83.63;31.52;;;;;;;;;;5149151;27;20111;-63
2022/01/26 12:05:22;;;;;;;82.68;31.77;;;;;;;;;;5166486;27;20058;-63
2022/01/26 12:07:50;;;;;;;73.93;30.08;;;;;;;;;;5152637;27;20051;-62
2022/01/26 12:10:18;;;;;;;77.03;31.95;;;;;;;;;;5138972;27;20039;-63
2022/01/26 12:12:45;;;;;;;93.55;33.83;;;;;;;;;;5146443;27;20107;-63
2022/01/26 12:15:16;;;;;;;79.47;31.40;;;;;;;;;;5146815;27;20051;-63
2022/01/26 12:18:01;;;;;;;81.90;33.03;;;;;;;;;;5146704;27;20051;-63
2022/01/26 12:45:04;;;;;;;88.30;33.22;;;;;;;;;;5145631;27;20051;-63
2022/01/26 12:47:31;;;;;;;91.00;34.47;;;;;;;;;;5167039;27;20042;-63
2022/01/26 12:49:58;;;;;;;74.22;30.75;;;;;;;;;;5153089;27;20102;-63
2022/01/26 12:52:24;;;;;;;87.88;34.47;;;;;;;;;;5161546;27;20085;-63
2022/01/26 12:54:51;;;;;;;89.20;34.85;;;;;;;;;;5166421;27;20043;-63
2022/01/26 12:57:17;;;;;;;87.85;34.17;;;;;;;;;;5145920;27;20047;-63
2022/01/26 12:59:44;;;;;;;90.35;34.38;;;;;;;;;;5153968;27;20084;-63
2022/01/26 13:02:10;;;;;;;84.40;32.95;;;;;;;;;;5139844;27;20082;-63
2022/01/26 13:04:37;;;;;;;77.40;32.92;;;;;;;;;;5138531;27;20448;-63
2022/01/26 13:07:04;;;;;;;71.85;30.63;;;;;;;;;;5144803;27;20039;-63
2022/01/26 13:09:38;;;;;;;78.68;31.88;;;;;;;;;;5145399;27;20107;-62
2022/01/26 13:12:04;;;;;;;87.80;34.35;;;;;;;;;;5140919;27;20098;-63
2022/01/26 13:14:41;;;;;;;84.50;32.72;;;;;;;;;;5145267;27;20418;-63
2022/01/26 13:19:46;;;;;;;72.55;31.90;;;;;;;;;;5137069;27;20070;-63
2022/01/26 13:25:15;;;;;;;83.45;33.17;;;;;;;;;;5145738;27;20047;-63
2022/01/26 13:36:09;;;;;;;74.18;30.88;;;;;;;;;;5132606;27;20043;-64
2022/01/26 13:52:44;;;;;;;72.97;28.70;;;;;;;;;;5122389;28;20044;-65
2022/01/26 14:00:38;;;;;;;66.25;30.33;;;;;;;;;;5022912;28;20113;-64
2022/01/26 14:03:07;;;;;;;73.38;29.52;;;;;;;;;;5025715;28;20100;-63
2022/01/26 14:05:33;;;;;;;77.18;25.77;;;;;;;;;;5022397;28;20049;-63
2022/01/26 14:07:59;;;;;;;67.00;30.08;;;;;;;;;;5025770;28;20124;-65
2022/01/26 14:10:25;;;;;;;73.22;30.33;;;;;;;;;;5025161;28;20050;-65
2022/01/26 14:12:52;;;;;;;50.95;25.35;;;;;;;;;;5025387;28;20084;-65
2022/01/26 14:15:24;;;;;;;56.67;27.17;;;;;;;;;;5025532;28;20045;-62
2022/01/26 14:18:11;;;;;;;55.83;23.42;;;;;;;;;;5026002;28;20762;-65
2022/01/26 14:25:58;;;;;;;63.13;26.40;;;;;;;;;;5044957;28;20095;-64
2022/01/26 14:28:31;;;;;;;64.17;26.90;;;;;;;;;;5044933;28;20150;-65
2022/01/26 14:31:57;;;;;;;61.60;25.55;;;;;;;;;;5044389;28;20057;-63
2022/01/26 15:29:57;;;;;;;65.40;25.88;;;;;;;;;;5147226;27;20047;-64
2022/01/26 15:33:33;;;;;;;59.72;26.48;;;;;;;;;;5147793;27;20096;-65
2022/01/26 16:07:38;;;;;;;61.22;24.35;;;;;;;;;;5167194;27;20103;-64
2022/01/26 18:33:14;;;;;;;48.35;20.77;;;;;;;;;;5137787;27;20055;-60
2022/01/26 18:46:51;;;;;;;40.15;20.08;;;;;;;;;;5147498;27;20047;-61
2022/01/26 18:49:21;;;;;;;46.78;21.23;;;;;;;;;;5154556;27;20455;-61
2022/01/26 18:51:48;;;;;;;48.60;21.17;;;;;;;;;;5143816;27;20062;-61
2022/01/26 18:54:15;;;;;;;39.20;20.05;;;;;;;;;;5150310;27;20055;-60
2022/01/26 18:56:41;;;;;;;43.37;20.47;;;;;;;;;;5145135;27;20043;-60
2022/01/26 18:59:09;;;;;;;41.85;19.10;;;;;;;;;;5142520;27;20043;-61
2022/01/26 19:01:35;;;;;;;45.70;21.73;;;;;;;;;;5135417;27;20059;-60
2022/01/26 19:04:01;;;;;;;46.47;19.95;;;;;;;;;;5135783;27;20051;-62
2022/01/26 19:06:28;;;;;;;34.90;17.80;;;;;;;;;;5138254;27;20048;-61
2022/01/26 19:08:54;;;;;;;39.30;20.13;;;;;;;;;;5135568;27;20110;-61
2022/01/26 19:11:21;;;;;;;38.50;16.85;;;;;;;;;;5138148;27;20429;-61
2022/01/26 19:13:49;;;;;;;41.78;19.60;;;;;;;;;;5136990;27;20040;-61
2022/01/26 19:16:42;;;;;;;33.50;17.40;;;;;;;;;;5140713;27;20043;-60
2022/01/26 19:19:24;;;;;;;42.97;19.30;;;;;;;;;;5138789;27;20039;-61
2022/01/26 19:22:03;;;;;;;40.55;19.33;;;;;;;;;;5138385;27;20039;-60
2022/01/26 19:24:46;;;;;;;43.58;20.67;;;;;;;;;;5145877;27;20043;-61
2022/01/26 19:30:35;;;;;;;36.53;18.55;;;;;;;;;;5130249;27;20040;-65
2022/01/26 19:51:51;;;;;;;41.65;19.73;;;;;;;;;;5136837;27;20055;-64
2022/01/26 19:54:18;;;;;;;35.33;18.83;;;;;;;;;;5146367;27;20047;-64
2022/01/26 19:56:44;;;;;;;37.90;17.25;;;;;;;;;;5146304;27;20031;-64
2022/01/26 19:59:10;;;;;;;35.25;17.13;;;;;;;;;;5146532;27;20039;-64
2022/01/26 20:01:36;;;;;;;41.35;17.83;;;;;;;;;;5146890;27;20221;-63
2022/01/26 20:04:02;;;;;;;35.70;17.70;;;;;;;;;;5145918;27;20059;-64
2022/01/26 20:06:28;;;;;;;39.10;18.88;;;;;;;;;;5146624;27;20055;-65
2022/01/26 20:09:05;;;;;;;41.95;19.65;;;;;;;;;;5144560;27;20126;-64
2022/01/26 20:11:41;;;;;;;34.88;18.88;;;;;;;;;;5143605;27;20043;-64
2022/01/26 20:14:07;;;;;;;36.53;17.85;;;;;;;;;;5145461;27;20044;-64
2022/01/26 20:16:36;;;;;;;45.03;19.40;;;;;;;;;;5144960;27;20039;-64
2022/01/26 20:19:03;;;;;;;37.97;19.15;;;;;;;;;;5145583;27;20693;-64
2022/01/26 20:21:29;;;;;;;39.38;20.02;;;;;;;;;;5144886;27;20059;-64
2022/01/26 20:23:55;;;;;;;39.75;19.05;;;;;;;;;;5147017;27;20050;-64
2022/01/26 20:26:22;;;;;;;45.97;21.20;;;;;;;;;;5137807;27;20046;-64
2022/01/26 20:28:49;;;;;;;40.42;19.90;;;;;;;;;;5146058;27;20055;-64
2022/01/26 20:31:20;;;;;;;47.50;21.65;;;;;;;;;;5146993;27;20065;-64
2022/01/26 20:33:47;;;;;;;47.63;21.42;;;;;;;;;;5146812;27;20058;-62
2022/01/26 20:36:14;;;;;;;45.83;21.35;;;;;;;;;;5145935;27;20092;-63
2022/01/26 20:38:40;;;;;;;33.20;17.92;;;;;;;;;;5146585;27;20054;-65
2022/01/26 20:41:06;;;;;;;42.20;21.23;;;;;;;;;;5145730;27;20043;-63
2022/01/26 20:43:33;;;;;;;45.25;20.05;;;;;;;;;;5144306;27;20039;-63
2022/01/26 20:46:02;;;;;;;40.40;20.40;;;;;;;;;;5138815;27;20031;-63
2022/01/26 20:48:28;;;;;;;42.63;19.98;;;;;;;;;;5139208;27;20047;-63
2022/01/26 20:50:54;;;;;;;43.85;20.02;;;;;;;;;;5140360;27;20031;-63
2022/01/26 20:53:20;;;;;;;36.97;18.10;;;;;;;;;;5138648;27;20081;-63
2022/01/26 20:55:46;;;;;;;40.33;19.80;;;;;;;;;;5137017;27;20053;-63
2022/01/26 20:58:13;;;;;;;39.58;19.15;;;;;;;;;;5138527;27;20042;-62
2022/01/26 21:00:39;;;;;;;37.03;19.42;;;;;;;;;;5141515;27;20075;-63
2022/01/26 21:03:05;;;;;;;35.70;16.02;;;;;;;;;;5141496;27;20047;-63
2022/01/26 21:05:32;;;;;;;36.75;18.05;;;;;;;;;;5139078;27;20057;-63
2022/01/26 21:08:00;;;;;;;39.13;18.73;;;;;;;;;;5146029;27;20043;-63
2022/01/26 21:10:26;;;;;;;42.70;18.95;;;;;;;;;;5144630;27;20356;-65
2022/01/26 21:12:52;;;;;;;50.15;21.42;;;;;;;;;;5146806;27;20054;-63
2022/01/26 21:15:18;;;;;;;43.72;20.60;;;;;;;;;;5140939;27;20031;-63
2022/01/26 21:17:46;;;;;;;36.40;18.70;;;;;;;;;;5141619;27;20043;-63
2022/01/26 21:20:14;;;;;;;45.78;18.80;;;;;;;;;;5143821;27;20084;-63
2022/01/26 21:22:41;;;;;;;34.28;18.17;;;;;;;;;;5145279;27;20047;-59
2022/01/26 21:25:07;;;;;;;41.65;18.52;;;;;;;;;;5136295;27;20066;-59
2022/01/26 21:27:33;;;;;;;42.50;18.88;;;;;;;;;;5146028;27;20469;-65
2022/01/26 21:30:00;;;;;;;42.42;19.67;;;;;;;;;;5140487;27;20127;-63
2022/01/26 21:32:27;;;;;;;41.85;19.25;;;;;;;;;;5144119;27;20043;-66
2022/01/26 21:34:54;;;;;;;40.33;19.23;;;;;;;;;;5136100;27;20046;-69
2022/01/26 21:37:20;;;;;;;37.83;18.10;;;;;;;;;;5138119;27;20488;-67
2022/01/26 21:39:47;;;;;;;45.45;19.48;;;;;;;;;;5131643;27;20051;-67
2022/01/26 21:42:13;;;;;;;33.80;18.30;;;;;;;;;;5136857;27;20059;-67
2022/01/26 21:44:39;;;;;;;41.30;20.15;;;;;;;;;;5143060;27;20046;-66
2022/01/26 21:47:06;;;;;;;38.55;20.25;;;;;;;;;;5142578;27;20096;-63